Time;durP1;ratioP1;P1;durP2;ratioP2;P2;SDS_P1;SDS_P2;PMS_P1;PMS_P2;Temp;Humidity;BMP_temperature;BMP_pressure;BME280_temperature;BME280_humidity;BME280_pressure;Samples;Min_cycle;Max_cycle;Signal;HPM_P1;HPM_P2
2024/02/09 00:01:36;;;;;;;7.70;6.10;;;;;;;6.78;69.10;98611.70;104332;1254;61192;-62
2024/02/09 00:04:14;;;;;;;6.60;5.90;;;;;;;6.21;70.89;98619.48;104733;1255;59865;-62
2024/02/09 00:06:41;;;;;;;7.60;6.70;;;;;;;6.34;72.21;98620.71;104805;1257;72426;-61
2024/02/09 00:09:26;;;;;;;8.00;6.00;;;;;;;6.44;72.38;98623.58;105516;1257;70870;-61
2024/02/09 00:12:11;;;;;;;6.80;6.10;;;;;;;6.40;71.96;98622.01;105440;1253;72592;-62
2024/02/09 00:14:44;;;;;;;7.00;6.00;;;;;;;6.42;72.00;98624.20;104552;1258;60922;-61
2024/02/09 00:17:32;;;;;;;7.10;6.30;;;;;;;6.38;72.00;98615.83;104441;1253;60478;-61
2024/02/09 00:20:25;;;;;;;6.20;5.50;;;;;;;6.66;71.81;98620.77;105341;1256;74430;-62
2024/02/09 00:22:51;;;;;;;7.70;6.10;;;;;;;6.80;70.24;98615.61;104627;1253;69971;-62
2024/02/09 00:25:19;;;;;;;6.80;6.20;;;;;;;6.32;72.84;98613.98;104349;1253;72950;-62
2024/02/09 00:28:05;;;;;;;6.60;6.00;;;;;;;6.12;75.29;98611.85;105198;1253;62429;-63
2024/02/09 00:30:38;;;;;;;8.50;6.80;;;;;;;5.99;77.49;98612.04;105238;1257;59798;-62
2024/02/09 00:33:08;;;;;;;7.60;6.80;;;;;;;6.00;78.85;98601.90;104505;1264;73433;-62
2024/02/09 00:36:12;;;;;;;;;;;;;;;6.39;76.26;98599.92;104403;1254;69595;-61
2024/02/09 00:38:57;;;;;;;7.40;6.20;;;;;;;6.64;74.38;98591.38;104714;1272;74115;-61
2024/02/09 00:42:12;;;;;;;7.70;6.50;;;;;;;6.31;74.54;98593.30;104572;1257;60774;-62
2024/02/09 00:45:19;;;;;;;6.80;6.10;;;;;;;5.96;78.19;98584.46;104500;1252;60776;-62
2024/02/09 00:48:30;;;;;;;8.30;6.80;;;;;;;5.94;78.90;98581.79;104572;1257;73258;-60
2024/02/09 00:51:53;;;;;;;7.00;6.30;;;;;;;5.91;81.64;98579.83;105015;1257;70820;-60
2024/02/09 00:55:04;;;;;;;6.50;5.90;;;;;;;5.90;82.07;98582.09;105966;1256;72606;-60
2024/02/09 00:57:46;;;;;;;8.00;6.20;;;;;;;6.28;80.56;98575.16;105031;1253;60243;-60
2024/02/09 01:00:18;;;;;;;6.60;6.00;;;;;;;6.56;76.56;98574.48;104461;1257;60352;-60
2024/02/09 01:03:40;;;;;;;6.10;5.40;;;;;;;6.58;76.47;98573.69;104426;1252;73423;-60
2024/02/09 01:06:21;;;;;;;7.20;5.40;;;;;;;6.08;79.11;98548.52;104460;1259;68485;-60
2024/02/09 01:09:25;;;;;;;5.70;5.10;;;;;;;6.37;78.03;98562.45;104798;1271;72143;-59
2024/02/09 01:11:52;;;;;;;5.40;4.80;;;;;;;6.61;76.16;98558.09;104931;1258;60836;-60
2024/02/09 02:45:45;;;;;;;3.40;3.10;;;;;;;6.54;75.98;98462.97;104404;1253;60565;-64
2024/02/09 03:05:48;;;;;;;4.30;3.30;;;;;;;6.47;76.47;98451.99;104444;1256;69332;-61
2024/02/09 03:08:30;;;;;;;2.80;2.60;;;;;;;6.41;76.88;98455.04;104816;1253;73235;-62
2024/02/09 03:11:14;;;;;;;3.20;2.90;;;;;;;6.28;78.85;98455.27;104978;1255;60675;-61
2024/02/09 03:14:00;;;;;;;3.40;3.10;;;;;;;6.46;78.12;98450.11;104773;1253;61696;-62
2024/02/09 03:16:46;;;;;;;3.10;2.60;;;;;;;6.41;76.63;98453.61;104737;1256;73625;-62
2024/02/09 03:19:19;;;;;;;3.40;2.70;;;;;;;5.98;80.45;98453.93;104852;1258;69972;-63
2024/02/09 03:22:04;;;;;;;3.40;3.10;;;;;;;5.89;82.75;98448.91;104821;1252;72880;-62
2024/02/09 03:24:43;;;;;;;3.10;2.90;;;;;;;6.38;80.03;98449.42;104511;1256;60744;-62
2024/02/09 03:27:31;;;;;;;3.30;3.00;;;;;;;6.11;81.25;98450.06;104309;1254;60396;-62
2024/02/09 03:30:01;;;;;;;3.40;3.10;;;;;;;6.12;80.21;98437.84;105267;1256;73739;-62
2024/02/09 03:33:24;;;;;;;3.00;2.70;;;;;;;5.86;84.31;98435.16;104997;1253;70856;-63
2024/02/09 03:36:34;;;;;;;3.50;3.20;;;;;;;6.05;82.73;98426.48;105192;1253;72949;-62
2024/02/09 03:39:48;;;;;;;3.50;3.20;;;;;;;6.34;80.01;98418.94;104913;1259;61573;-63
2024/02/09 03:42:58;;;;;;;2.80;2.60;;;;;;;5.81;83.66;98415.33;104782;1253;60562;-62
2024/02/09 03:45:34;;;;;;;3.50;2.80;;;;;;;5.98;83.79;98411.52;105000;1259;73664;-63
2024/02/09 03:48:26;;;;;;;3.60;3.20;;;;;;;6.32;79.79;98408.80;104876;1253;71013;-62
2024/02/09 03:51:31;;;;;;;2.80;2.50;;;;;;;6.32;79.01;98403.77;104391;1262;72566;-61
2024/02/09 03:54:03;;;;;;;3.10;2.80;;;;;;;6.35;78.73;98383.77;104325;1261;61165;-61
2024/02/09 03:56:36;;;;;;;2.90;2.60;;;;;;;6.52;77.02;98386.30;104616;1254;60518;-61
2024/02/09 03:59:46;;;;;;;3.60;3.30;;;;;;;6.40;77.61;98384.94;105187;1256;73978;-61
2024/02/09 04:02:51;;;;;;;3.30;3.00;;;;;;;6.38;78.09;98385.05;104316;1261;70697;-61
2024/02/09 04:05:37;;;;;;;3.20;2.90;;;;;;;6.36;78.25;98387.20;104643;1253;74018;-61
2024/02/09 04:08:22;;;;;;;3.30;3.00;;;;;;;6.34;78.01;98387.46;105079;1256;64193;-61
2024/02/09 04:11:07;;;;;;;3.10;2.70;;;;;;;6.35;78.26;98391.97;105285;1255;60460;-62
2024/02/09 04:13:41;;;;;;;3.30;3.00;;;;;;;6.38;78.49;98389.01;106318;1255;73579;-61
2024/02/09 04:16:26;;;;;;;3.90;3.30;;;;;;;6.34;78.58;98392.53;105081;1256;69979;-62
2024/02/09 04:19:11;;;;;;;3.50;3.20;;;;;;;6.28;78.45;98394.34;105232;1257;72431;-61
2024/02/09 04:21:47;;;;;;;3.60;3.30;;;;;;;5.95;80.83;98396.83;104524;1257;61606;-61
2024/02/09 04:24:51;;;;;;;3.60;3.20;;;;;;;5.61;84.85;98399.86;104363;1253;60559;-61
2024/02/09 04:28:00;;;;;;;3.70;3.40;;;;;;;5.53;86.96;98396.71;104704;1256;73939;-62
2024/02/09 04:31:26;;;;;;;4.00;3.60;;;;;;;5.53;88.07;98394.98;104937;1255;70843;-62
2024/02/09 04:34:02;;;;;;;4.20;3.80;;;;;;;5.51;88.81;98398.19;105121;1257;72887;-62
2024/02/09 04:37:07;;;;;;;4.10;3.80;;;;;;;5.47;89.78;98398.54;105360;1257;61209;-62
2024/02/09 04:39:41;;;;;;;4.20;3.80;;;;;;;5.46;90.36;98396.13;104730;1265;60467;-62
2024/02/09 04:42:17;;;;;;;4.50;3.80;;;;;;;5.45;90.95;98394.59;104749;1259;74351;-62
2024/02/09 04:44:43;;;;;;;4.20;3.80;;;;;;;5.50;90.88;98389.90;104458;1257;69774;-62
2024/02/09 04:47:29;;;;;;;4.20;3.70;;;;;;;5.48;90.46;98387.55;105056;1253;74068;-62
2024/02/09 04:50:18;;;;;;;4.00;3.70;;;;;;;5.49;91.03;98387.85;105249;1258;61752;-62
2024/02/09 04:52:48;;;;;;;4.40;4.00;;;;;;;5.48;90.99;98386.85;105280;1254;60511;-62
2024/02/09 04:55:53;;;;;;;5.10;4.50;;;;;;;5.44;91.07;98385.27;104992;1256;73857;-62
2024/02/09 04:58:26;;;;;;;4.80;4.40;;;;;;;5.39;91.59;98387.73;104675;1270;69820;-62
2024/02/09 05:01:08;;;;;;;4.40;4.00;;;;;;;5.38;91.73;98384.82;104778;1274;71847;-61
2024/02/09 05:03:36;;;;;;;5.50;4.40;;;;;;;5.39;91.62;98380.79;105403;1257;60462;-62
2024/02/09 05:06:21;;;;;;;5.00;4.60;;;;;;;5.47;91.59;98373.34;104499;1255;61831;-61
2024/02/09 05:09:29;;;;;;;5.00;4.50;;;;;;;6.06;86.37;98368.00;105667;1252;74349;-61
2024/02/09 05:11:59;;;;;;;6.90;4.70;;;;;;;6.20;82.95;98367.20;104609;1261;68082;-61
2024/02/09 05:15:22;;;;;;;5.40;4.90;;;;;;;6.26;81.43;98365.90;104846;1272;71703;-60
2024/02/09 05:17:55;;;;;;;4.90;4.40;;;;;;;6.17;80.73;98364.04;104838;1254;60669;-60
2024/02/09 05:20:28;;;;;;;5.20;4.80;;;;;;;6.15;80.52;98363.07;106117;1253;59932;-61
2024/02/09 05:23:52;;;;;;;5.70;4.70;;;;;;;6.13;80.68;98367.34;104738;1253;75388;-61
2024/02/09 05:26:31;;;;;;;5.20;4.70;;;;;;;6.13;81.07;98366.68;104563;1257;70115;-61
2024/02/09 05:29:35;;;;;;;4.90;4.50;;;;;;;6.13;80.78;98369.61;104847;1255;72149;-60
2024/02/09 05:32:02;;;;;;;4.60;4.20;;;;;;;6.34;79.01;98369.50;105143;1271;61103;-60
2024/02/09 05:34:34;;;;;;;4.80;4.30;;;;;;;6.49;76.69;98367.30;104643;1265;60535;-60
2024/02/09 05:37:45;;;;;;;4.20;3.90;;;;;;;6.37;76.16;98368.69;104371;1265;74613;-61
2024/02/09 05:40:39;;;;;;;5.00;4.50;;;;;;;6.31;76.61;98367.93;105588;1253;70948;-61
2024/02/09 05:43:07;;;;;;;5.00;4.50;;;;;;;6.32;77.36;98361.77;104386;1269;72530;-60
2024/02/09 05:45:49;;;;;;;4.70;4.20;;;;;;;6.30;77.59;98365.05;104447;1251;61033;-60
2024/02/09 05:48:35;;;;;;;4.60;4.20;;;;;;;6.29;77.42;98365.63;105572;1254;60533;-61
2024/02/09 05:51:21;;;;;;;4.70;4.30;;;;;;;6.31;76.43;98358.01;104376;1273;77182;-61
2024/02/09 05:54:38;;;;;;;4.60;4.30;;;;;;;5.99;77.69;98359.75;105882;1254;68312;-61
2024/02/09 05:57:06;;;;;;;4.30;3.90;;;;;;;5.74;82.73;98365.05;104408;1270;72392;-60
2024/02/09 05:59:43;;;;;;;5.00;4.60;;;;;;;5.89;83.30;98368.73;104920;1263;60466;-61
2024/02/09 06:02:10;;;;;;;4.50;4.10;;;;;;;6.02;80.42;98372.86;104800;1255;60543;-61
2024/02/09 06:04:55;;;;;;;4.80;4.40;;;;;;;5.91;82.45;98377.18;104623;1272;72298;-61
2024/02/09 06:07:40;;;;;;;4.30;4.00;;;;;;;5.88;80.68;98374.67;104594;1256;70772;-61
2024/02/09 06:10:32;;;;;;;4.90;4.40;;;;;;;5.89;81.97;98373.09;104467;1253;74511;-61
2024/02/09 06:12:59;;;;;;;4.00;3.70;;;;;;;5.74;82.15;98373.39;104749;1252;60679;-60
2024/02/09 06:15:26;;;;;;;4.40;4.00;;;;;;;5.64;83.85;98376.09;107033;1251;61016;-60
2024/02/09 06:17:53;;;;;;;5.10;4.40;;;;;;;5.82;83.95;98374.42;104943;1256;73804;-59
2024/02/09 06:20:22;;;;;;;4.40;3.80;;;;;;;6.00;81.39;98371.58;104950;1256;69220;-59
2024/02/09 06:22:49;;;;;;;4.30;4.00;;;;;;;6.12;80.57;98371.92;105318;1254;73073;-60
2024/02/09 06:25:16;;;;;;;4.20;3.80;;;;;;;5.87;80.73;98368.64;104546;1263;61191;-59
2024/02/09 06:27:43;;;;;;;6.20;4.50;;;;;;;5.61;83.95;98366.13;104898;1251;60568;-60
2024/02/09 06:30:11;;;;;;;5.20;3.90;;;;;;;5.64;84.65;98367.02;105579;1252;73602;-60
2024/02/09 06:32:40;;;;;;;4.50;4.10;;;;;;;5.61;83.99;98367.86;105702;1255;69145;-59
2024/02/09 06:35:07;;;;;;;3.80;3.50;;;;;;;5.77;83.04;98368.20;107043;1251;72613;-61
2024/02/09 06:37:34;;;;;;;4.20;3.80;;;;;;;5.55;84.32;98371.93;105974;1255;60472;-61
2024/02/09 06:40:03;;;;;;;4.40;4.00;;;;;;;5.48;85.56;98375.21;105272;1251;60507;-63
2024/02/09 06:42:30;;;;;;;4.20;3.80;;;;;;;5.45;86.06;98374.45;104976;1253;74081;-63
2024/02/09 06:44:57;;;;;;;4.70;3.90;;;;;;;5.40;86.23;98374.84;105519;1256;69671;-60
2024/02/09 06:47:25;;;;;;;4.00;3.70;;;;;;;5.67;85.46;98373.31;105017;1266;72494;-59
2024/02/09 06:49:52;;;;;;;4.80;3.30;;;;;;;5.96;81.75;98375.56;104641;1251;61402;-59
2024/02/09 06:52:20;;;;;;;;;;;;;;;6.14;79.24;98375.16;104575;1257;60435;-58
2024/02/09 06:54:47;;;;;;;;;;;;;;;6.18;77.90;98376.89;105861;1253;74007;-59
2024/02/09 06:57:14;;;;;;;3.80;3.40;;;;;;;6.02;78.28;98377.73;105444;1256;69547;-61
2024/02/09 06:59:45;;;;;;;3.70;3.30;;;;;;;5.97;79.31;98374.50;104835;1251;72454;-59
2024/02/09 07:02:12;;;;;;;3.70;3.40;;;;;;;6.17;77.14;98366.48;104747;1267;62216;-59
2024/02/09 07:04:40;;;;;;;3.40;3.10;;;;;;;5.77;78.57;98365.76;105929;1253;59952;-58
2024/02/09 07:07:08;;;;;;;4.30;3.60;;;;;;;5.52;82.78;98366.66;104944;1255;73930;-59
2024/02/09 07:09:36;;;;;;;;;;;;;;;5.74;82.93;98369.39;105236;1254;70812;-59
2024/02/09 07:12:03;;;;;;;4.70;3.50;;;;;;;5.84;80.39;98373.65;105786;1251;72295;-57
2024/02/09 07:14:31;;;;;;;4.30;3.60;;;;;;;5.56;82.82;98376.77;105180;1251;61159;-58
2024/02/09 07:16:58;;;;;;;3.30;3.00;;;;;;;5.77;82.07;98381.77;105191;1251;61109;-58
2024/02/09 07:19:24;;;;;;;3.90;3.50;;;;;;;7.52;76.27;98380.77;106053;1254;72736;-59
2024/02/09 07:21:51;;;;;;;3.60;3.30;;;;;;;7.95;64.55;98374.02;105782;1251;69883;-58
2024/02/09 07:24:18;;;;;;;4.60;3.60;;;;;;;7.64;66.75;98370.94;105364;1256;72566;-59
2024/02/09 07:26:46;;;;;;;4.10;3.70;;;;;;;7.20;67.00;98372.71;105441;1251;60998;-60
2024/02/09 07:29:12;;;;;;;4.20;3.80;;;;;;;6.62;69.98;98373.30;104644;1254;60464;-59
2024/02/09 07:31:39;;;;;;;3.80;3.50;;;;;;;6.80;70.53;98370.51;104596;1255;74090;-59
2024/02/09 07:34:11;;;;;;;3.90;3.60;;;;;;;7.27;66.79;98370.69;105384;1251;69530;-59
2024/02/09 07:36:41;;;;;;;4.10;3.70;;;;;;;7.29;65.57;98365.04;105583;1255;72367;-61
2024/02/09 07:39:09;;;;;;;4.20;3.80;;;;;;;7.28;65.24;98354.95;105482;1251;60771;-62
2024/02/09 07:41:36;;;;;;;;;;;;;;;7.24;65.14;98350.10;105552;1257;60509;-60
2024/02/09 07:44:03;;;;;;;5.90;4.30;;;;;;;7.15;64.90;98346.02;104735;1257;72655;-60
2024/02/09 07:46:31;;;;;;;3.90;3.50;;;;;;;7.19;65.12;98347.55;104875;1256;69526;-60
2024/02/09 07:48:59;;;;;;;4.30;3.90;;;;;;;7.27;64.17;98341.61;104807;1257;73982;-61
2024/02/09 07:51:27;;;;;;;3.70;3.40;;;;;;;7.21;64.20;98340.30;106094;1251;62397;-61
2024/02/09 07:53:54;;;;;;;;;;;;;;;7.05;65.42;98342.00;105178;1253;60502;-60
2024/02/09 07:56:24;;;;;;;4.10;3.70;;;;;;;7.07;65.84;98337.70;104809;1257;72967;-60
2024/02/09 07:58:52;;;;;;;5.80;3.70;;;;;;;7.06;65.82;98339.82;105902;1251;69371;-61
2024/02/09 08:01:22;;;;;;;4.20;3.80;;;;;;;7.06;66.17;98346.65;104729;1251;74394;-60
2024/02/09 08:03:50;;;;;;;4.40;3.80;;;;;;;7.11;66.06;98347.93;105292;1256;61123;-61
2024/02/09 08:06:17;;;;;;;3.90;3.50;;;;;;;7.06;65.99;98350.30;104595;1251;60537;-60
2024/02/09 08:08:44;;;;;;;4.00;3.70;;;;;;;7.02;65.96;98356.23;105250;1251;73742;-60
2024/02/09 08:11:11;;;;;;;4.80;4.20;;;;;;;6.84;67.02;98361.45;104907;1253;69050;-61
2024/02/09 08:13:39;;;;;;;4.40;4.00;;;;;;;6.82;67.41;98356.87;105371;1265;72309;-62
2024/02/09 08:16:06;;;;;;;4.70;4.30;;;;;;;6.80;67.11;98340.92;105192;1251;61852;-64
2024/02/09 08:18:34;;;;;;;4.30;3.90;;;;;;;6.89;67.02;98366.46;105480;1251;61353;-61
2024/02/09 08:21:02;;;;;;;4.50;4.10;;;;;;;6.96;66.99;98368.02;104657;1269;73665;-61
2024/02/09 08:23:29;;;;;;;4.30;3.70;;;;;;;6.88;67.26;98371.20;105093;1253;69631;-64
2024/02/09 08:25:56;;;;;;;4.20;3.90;;;;;;;7.00;66.97;98369.58;106649;1251;72200;-62
2024/02/09 08:28:24;;;;;;;5.40;3.80;;;;;;;6.99;66.56;98369.98;104758;1256;61353;-60
2024/02/09 08:30:52;;;;;;;4.30;3.80;;;;;;;6.90;67.18;98366.91;106162;1251;60608;-62
2024/02/09 08:33:19;;;;;;;4.50;4.10;;;;;;;6.92;66.98;98371.50;104984;1256;75088;-60
2024/02/09 08:35:46;;;;;;;4.70;4.20;;;;;;;6.98;66.82;98371.05;104596;1251;69568;-61
2024/02/09 08:38:13;;;;;;;4.60;4.20;;;;;;;7.04;66.52;98367.67;105584;1251;73427;-60
2024/02/09 08:40:40;;;;;;;7.30;4.50;;;;;;;7.06;66.24;98369.64;104785;1254;60863;-60
2024/02/09 08:43:10;;;;;;;4.50;4.10;;;;;;;7.03;66.93;98371.52;104592;1255;60557;-61
2024/02/09 08:45:37;;;;;;;4.40;4.00;;;;;;;7.05;66.50;98373.69;106225;1253;72500;-61
2024/02/09 08:48:04;;;;;;;4.80;4.40;;;;;;;7.06;66.61;98370.70;105416;1251;68730;-60
2024/02/09 08:50:32;;;;;;;4.40;3.90;;;;;;;7.11;66.50;98369.02;105345;1251;72328;-61
2024/02/09 08:52:59;;;;;;;;;;;;;;;7.21;65.83;98369.63;104358;1255;61241;-60
2024/02/09 08:55:26;;;;;;;4.20;3.80;;;;;;;7.13;65.48;98362.48;104619;1253;60563;-61
2024/02/09 08:57:53;;;;;;;4.20;3.80;;;;;;;6.99;66.13;98362.48;105929;1254;73447;-61
2024/02/09 09:00:21;;;;;;;5.50;4.30;;;;;;;7.00;66.41;98368.71;106225;1256;68870;-61
2024/02/09 09:02:52;;;;;;;5.20;4.10;;;;;;;7.00;66.66;98374.26;105204;1252;72410;-61
2024/02/09 09:05:19;;;;;;;4.00;3.60;;;;;;;7.01;66.21;98374.73;104876;1252;61074;-61
2024/02/09 09:07:46;;;;;;;3.90;3.50;;;;;;;6.99;66.18;98383.18;105026;1251;62858;-62
2024/02/09 09:10:13;;;;;;;4.40;4.00;;;;;;;7.03;66.52;98374.13;105436;1257;74156;-60
2024/02/09 09:12:42;;;;;;;4.40;4.00;;;;;;;7.09;66.02;98377.88;105026;1266;69729;-66
2024/02/09 09:17:54;;;;;;;4.90;4.40;;;;;;;6.43;76.60;98386.11;101870;1295;601608;-59
2024/02/09 09:21:08;;;;;;;4.70;4.30;;;;;;;7.17;65.07;98392.61;104274;1266;60886;-60
2024/02/09 09:24:20;;;;;;;4.70;4.20;;;;;;;6.21;71.30;98395.90;104541;1267;59926;-61
2024/02/09 09:27:31;;;;;;;4.50;3.90;;;;;;;6.19;73.31;98396.84;104231;1267;72061;-62
2024/02/09 09:30:44;;;;;;;4.50;4.10;;;;;;;6.36;73.09;98390.86;103352;1260;1129198;-61
2024/02/09 09:33:53;;;;;;;4.70;4.20;;;;;;;6.71;70.69;98381.20;104653;1260;73640;-60
2024/02/09 09:37:08;;;;;;;4.50;4.10;;;;;;;6.66;70.20;98383.55;104444;1261;60851;-61
2024/02/09 09:40:14;;;;;;;4.70;4.10;;;;;;;7.10;67.55;98378.33;104241;1260;59856;-60
2024/02/09 09:42:56;;;;;;;5.80;4.90;;;;;;;7.15;66.60;98376.50;103844;1279;73465;-60
2024/02/09 09:46:02;;;;;;;5.50;5.00;;;;;;;7.19;66.27;98375.09;104497;1265;68389;-60
2024/02/09 09:48:57;;;;;;;5.00;4.30;;;;;;;7.24;65.58;98380.27;104590;1263;71511;-60
2024/02/09 09:51:33;;;;;;;4.60;4.20;;;;;;;7.10;66.46;98384.41;105558;1260;61963;-61
2024/02/09 09:54:01;;;;;;;6.30;4.80;;;;;;;7.24;65.82;98386.88;104460;1260;59848;-60
2024/02/09 09:57:10;;;;;;;5.40;4.90;;;;;;;7.20;66.15;98388.63;104260;1265;73658;-59
2024/02/09 10:00:09;;;;;;;5.40;4.90;;;;;;;7.07;66.53;98386.14;105284;1260;69761;-61
2024/02/09 10:03:17;;;;;;;4.70;4.30;;;;;;;6.75;69.15;98382.77;103921;1266;74283;-60
2024/02/09 10:06:00;;;;;;;4.50;4.10;;;;;;;6.75;69.76;98376.88;104156;1263;60843;-61
2024/02/09 10:09:09;;;;;;;5.30;4.70;;;;;;;6.73;69.99;98373.13;104940;1260;60958;-61
2024/02/09 10:12:20;;;;;;;4.80;4.20;;;;;;;6.75;70.34;98385.38;104370;1261;72828;-61
2024/02/09 10:15:26;;;;;;;4.70;4.30;;;;;;;6.79;70.59;98384.02;105024;1266;70447;-60
2024/02/09 10:18:38;;;;;;;4.90;4.30;;;;;;;6.76;70.92;98379.95;103856;1265;72534;-60
2024/02/09 10:21:49;;;;;;;4.90;4.30;;;;;;;6.88;70.27;98383.75;104439;1265;61054;-60
2024/02/09 10:25:03;;;;;;;4.60;4.10;;;;;;;6.96;69.56;98388.77;105292;1256;60075;-61
2024/02/09 10:27:38;;;;;;;4.90;4.50;;;;;;;6.92;69.28;98382.13;104483;1260;73088;-60
2024/02/09 10:30:44;;;;;;;5.10;4.70;;;;;;;6.87;69.61;98379.27;104256;1262;69533;-60
2024/02/09 10:33:30;;;;;;;5.40;4.50;;;;;;;6.86;69.40;98389.22;104371;1257;71696;-60
2024/02/09 10:36:35;;;;;;;4.90;4.30;;;;;;;6.83;69.20;98397.39;104549;1256;60705;-63
2024/02/09 10:39:53;;;;;;;5.40;4.80;;;;;;;6.82;69.34;98411.20;104146;1263;61125;-60
2024/02/09 10:42:52;;;;;;;5.10;4.70;;;;;;;6.81;69.79;98402.73;104579;1257;73706;-60
2024/02/09 10:46:00;;;;;;;4.70;4.30;;;;;;;6.80;69.84;98406.09;104632;1257;67999;-60
2024/02/09 10:49:14;;;;;;;4.80;4.30;;;;;;;6.87;69.33;98401.36;104903;1258;73872;-60
2024/02/09 10:52:29;;;;;;;5.20;4.10;;;;;;;6.74;69.75;98397.45;105239;1260;60773;-60
2024/02/09 10:55:45;;;;;;;5.90;5.30;;;;;;;6.69;69.20;98403.61;105280;1257;60097;-61
2024/02/09 10:58:58;;;;;;;5.10;4.60;;;;;;;6.64;70.16;98398.27;104637;1258;72862;-62
2024/02/09 11:01:59;;;;;;;4.80;4.40;;;;;;;6.67;70.92;98393.60;105011;1255;68452;-63
2024/02/09 11:05:05;;;;;;;6.30;5.30;;;;;;;6.68;71.04;98393.38;106239;1256;72779;-61
2024/02/09 11:08:18;;;;;;;4.90;4.50;;;;;;;6.71;71.42;98390.48;105027;1259;61010;-68
2024/02/09 11:11:36;;;;;;;4.50;4.00;;;;;;;6.83;70.59;98381.52;105256;1257;59778;-60
2024/02/09 11:14:47;;;;;;;5.60;4.80;;;;;;;6.89;70.03;98380.55;105693;1260;73571;-59
2024/02/09 11:17:59;;;;;;;5.40;4.90;;;;;;;6.91;69.95;98386.91;104621;1257;69277;-60
2024/02/09 11:20:36;;;;;;;5.10;4.60;;;;;;;6.75;69.79;98394.48;105053;1257;73211;-60
2024/02/09 11:23:43;;;;;;;6.40;4.70;;;;;;;6.75;70.34;98392.55;105920;1261;60766;-61
2024/02/09 11:27:12;;;;;;;5.70;5.10;;;;;;;6.68;70.74;98395.48;104591;1261;60638;-61
2024/02/09 11:30:43;;;;;;;6.90;5.40;;;;;;;6.69;70.42;98389.14;105012;1263;71840;-60
2024/02/09 11:33:55;;;;;;;6.60;5.20;;;;;;;6.66;71.12;98400.96;105794;1253;68346;-60
2024/02/09 11:37:08;;;;;;;5.80;5.30;;;;;;;7.08;68.45;98401.23;105240;1254;72511;-63
2024/02/09 11:40:21;;;;;;;5.70;5.20;;;;;;;6.84;70.18;98390.88;104592;1259;61765;-59
2024/02/09 11:43:01;;;;;;;6.20;4.80;;;;;;;6.87;70.02;98383.96;106262;1254;61646;-58
2024/02/09 11:46:08;;;;;;;6.10;5.00;;;;;;;6.82;69.71;98388.38;106615;1252;73798;-59
2024/02/09 11:49:20;;;;;;;5.40;4.90;;;;;;;6.80;70.91;98404.66;104839;1257;69949;-57
2024/02/09 11:52:19;;;;;;;5.90;5.20;;;;;;;6.85;70.22;98410.35;105953;1257;72479;-59
2024/02/09 11:55:25;;;;;;;5.70;5.20;;;;;;;6.70;70.81;98414.87;105177;1254;61242;-58
2024/02/09 11:58:36;;;;;;;6.20;5.60;;;;;;;6.76;70.40;98422.11;104984;1256;59842;-58
2024/02/09 12:01:48;;;;;;;5.90;5.40;;;;;;;6.77;71.36;98424.84;104899;1254;73532;-61
2024/02/09 12:05:00;;;;;;;6.70;5.40;;;;;;;6.83;71.59;98430.65;104869;1258;69630;-59
2024/02/09 12:08:13;;;;;;;6.30;5.70;;;;;;;7.02;70.38;98428.20;104977;1254;71523;-59
2024/02/09 12:11:26;;;;;;;6.20;5.20;;;;;;;7.04;69.04;98427.41;105468;1254;60265;-60
2024/02/09 12:14:38;;;;;;;6.00;5.00;;;;;;;6.95;69.56;98433.90;105411;1254;59909;-63
2024/02/09 12:17:18;;;;;;;5.90;5.30;;;;;;;6.97;69.78;98449.50;104488;1259;73141;-60
2024/02/09 12:20:23;;;;;;;7.40;6.50;;;;;;;6.97;69.50;98455.23;104701;1258;71257;-63
2024/02/09 12:23:35;;;;;;;6.60;5.90;;;;;;;7.01;69.32;98455.43;104511;1256;72590;-59
2024/02/09 12:26:46;;;;;;;5.90;5.30;;;;;;;7.08;69.08;98454.07;105654;1254;60871;-60
2024/02/09 12:29:58;;;;;;;6.30;5.60;;;;;;;7.00;69.11;98451.98;105359;1254;59932;-58
2024/02/09 12:33:11;;;;;;;6.30;5.50;;;;;;;7.04;69.02;98448.33;104533;1259;72894;-59
2024/02/09 12:36:26;;;;;;;6.40;5.80;;;;;;;6.93;69.84;98448.13;104512;1260;69528;-59
2024/02/09 12:39:38;;;;;;;7.80;5.50;;;;;;;6.92;69.66;98457.04;105291;1254;72496;-59
2024/02/09 12:42:31;;;;;;;7.30;5.80;;;;;;;7.08;68.94;98471.65;105472;1254;59781;-59
2024/02/09 12:45:37;;;;;;;6.40;5.80;;;;;;;6.98;68.99;98469.16;104641;1254;60154;-60
2024/02/09 12:48:48;;;;;;;7.80;6.30;;;;;;;6.91;68.99;98480.62;104452;1260;73038;-61
2024/02/09 12:51:52;;;;;;;6.00;5.40;;;;;;;7.00;69.32;98475.66;104454;1266;69658;-61
2024/02/09 12:54:58;;;;;;;6.20;5.60;;;;;;;6.95;69.35;98473.13;104414;1258;73191;-59
2024/02/09 12:57:52;;;;;;;6.80;6.00;;;;;;;6.56;70.91;98473.86;104326;1254;59727;-60
2024/02/09 13:01:01;;;;;;;8.00;6.40;;;;;;;6.30;74.39;98470.48;104980;1259;59829;-60
2024/02/09 13:04:12;;;;;;;6.90;6.10;;;;;;;6.32;76.33;98464.83;104335;1254;72853;-59
2024/02/09 13:07:21;;;;;;;7.50;6.20;;;;;;;6.34;76.39;98459.84;104372;1262;70268;-63
2024/02/09 13:10:27;;;;;;;7.50;5.80;;;;;;;6.35;76.25;98452.89;104699;1258;72998;-58
2024/02/09 13:13:39;;;;;;;7.00;6.30;;;;;;;6.31;76.50;98442.60;104562;1254;60839;-60
2024/02/09 13:16:52;;;;;;;6.70;6.00;;;;;;;6.31;76.84;98439.46;104479;1269;59826;-63
2024/02/09 13:20:06;;;;;;;6.70;5.60;;;;;;;6.28;77.11;98443.59;105145;1255;73127;-64
2024/02/09 13:23:21;;;;;;;7.50;6.10;;;;;;;6.37;76.45;98429.61;105000;1259;72814;-63
2024/02/09 13:26:15;;;;;;;;;;;;;;;6.33;76.14;98429.46;104882;1259;73734;-61
2024/02/09 13:29:42;;;;;;;7.60;6.00;;;;;;;6.40;75.98;98434.00;104958;1259;59857;-63
2024/02/09 13:32:22;;;;;;;8.30;6.70;;;;;;;6.62;74.54;98446.59;104356;1259;59978;-62
2024/02/09 13:35:28;;;;;;;7.40;6.70;;;;;;;6.81;71.42;98455.48;104766;1259;72875;-62
2024/02/09 13:38:40;;;;;;;7.90;5.70;;;;;;;6.26;75.59;98465.27;104339;1260;70691;-62
2024/02/09 13:41:55;;;;;;;9.20;7.00;;;;;;;6.22;76.47;98467.89;106189;1258;73311;-62
2024/02/09 13:45:13;;;;;;;8.20;6.50;;;;;;;6.18;77.11;98469.97;104602;1259;60708;-62
2024/02/09 13:47:47;;;;;;;7.00;6.30;;;;;;;6.14;77.83;98464.38;104610;1259;60892;-62
2024/02/09 13:50:53;;;;;;;7.80;6.90;;;;;;;6.14;78.00;98465.09;105077;1259;72826;-63
2024/02/09 13:54:06;;;;;;;7.00;6.30;;;;;;;6.11;78.68;98473.73;104283;1259;69741;-63
2024/02/09 13:57:18;;;;;;;6.90;6.30;;;;;;;6.05;79.68;98480.63;104698;1260;72582;-63
2024/02/09 14:00:27;;;;;;;8.50;6.80;;;;;;;6.10;79.64;98490.52;105109;1257;60870;-63
2024/02/09 14:03:41;;;;;;;7.40;6.50;;;;;;;6.06;79.90;98483.52;104475;1266;60010;-63
2024/02/09 14:06:50;;;;;;;8.30;6.80;;;;;;;6.25;78.44;98477.14;104759;1259;73664;-60
2024/02/09 14:10:02;;;;;;;8.40;6.20;;;;;;;6.07;79.65;98483.84;105209;1259;70414;-60
2024/02/09 14:13:15;;;;;;;6.70;6.10;;;;;;;6.26;79.15;98480.75;105396;1254;72586;-59
2024/02/09 14:16:27;;;;;;;7.10;6.20;;;;;;;6.24;78.43;98489.71;104332;1260;61620;-62
2024/02/09 14:19:04;;;;;;;10.70;6.60;;;;;;;6.20;77.95;98491.13;105962;1257;59839;-62
2024/02/09 14:21:54;;;;;;;6.60;6.00;;;;;;;6.14;78.06;98495.04;104494;1258;73210;-63
2024/02/09 14:25:02;;;;;;;9.10;6.70;;;;;;;6.03;78.86;98497.92;104920;1254;69756;-63
2024/02/09 14:28:14;;;;;;;9.30;6.40;;;;;;;6.01;79.31;98508.44;104948;1258;73454;-61
2024/02/09 14:31:27;;;;;;;7.60;7.00;;;;;;;5.94;79.25;98512.21;104841;1257;60616;-62
2024/02/09 14:34:40;;;;;;;10.30;6.70;;;;;;;5.89;80.46;98498.50;104463;1260;62570;-62
2024/02/09 14:37:21;;;;;;;8.50;6.00;;;;;;;5.93;80.39;98497.80;105291;1257;74294;-61
2024/02/09 14:40:30;;;;;;;8.00;6.70;;;;;;;6.11;79.40;98511.33;105763;1259;69514;-62
2024/02/09 14:43:42;;;;;;;8.60;7.00;;;;;;;6.08;79.08;98521.23;104836;1260;72758;-61
2024/02/09 14:46:54;;;;;;;7.20;6.00;;;;;;;6.08;79.53;98531.11;104353;1260;60769;-60
2024/02/09 14:50:08;;;;;;;8.30;7.20;;;;;;;6.12;78.47;98534.11;105189;1257;60520;-60
2024/02/09 14:53:20;;;;;;;8.20;6.80;;;;;;;6.17;78.73;98533.02;104481;1256;74863;-60
2024/02/09 14:56:32;;;;;;;9.50;7.10;;;;;;;6.27;77.71;98531.19;104281;1258;69516;-59
2024/02/09 15:00:00;;;;;;;7.80;7.00;;;;;;;6.28;76.87;98535.84;104294;1254;72614;-61
2024/02/09 15:03:11;;;;;;;7.30;6.60;;;;;;;6.19;76.27;98531.50;104625;1254;60798;-58
2024/02/09 15:06:43;;;;;;;9.30;6.40;;;;;;;6.57;73.36;98531.11;104779;1258;60655;-59
2024/02/09 15:10:13;;;;;;;8.00;6.60;;;;;;;6.22;75.16;98528.95;105383;1257;74450;-59
2024/02/09 15:13:26;;;;;;;9.30;6.50;;;;;;;6.21;75.40;98538.40;104596;1253;69565;-59